Time;durP1;ratioP1;P1;durP2;ratioP2;P2;SDS_P1;SDS_P2;PMS_P1;PMS_P2;Temp;Humidity;BMP_temperature;BMP_pressure;BME280_temperature;BME280_humidity;BME280_pressure;Samples;Min_cycle;Max_cycle;Signal;HPM_P1;HPM_P2
2022/05/22 00:01:12;;;;;;;14.30;13.80;;;;;;;;;;5092494;28;20727;-72
2022/05/22 00:03:39;;;;;;;14.10;13.60;;;;;;;;;;5092692;28;20197;-70
2022/05/22 00:06:06;;;;;;;14.13;13.63;;;;;;;;;;5092757;28;20204;-70
2022/05/22 00:08:34;;;;;;;14.25;13.75;;;;;;;;;;5092632;28;20295;-69
2022/05/22 00:11:00;;;;;;;14.40;13.90;;;;;;;;;;5092485;28;20610;-72
2022/05/22 00:13:27;;;;;;;14.45;13.95;;;;;;;;;;5092625;28;20221;-71
2022/05/22 00:18:38;;;;;;;14.20;13.70;;;;;;;;;;5092312;28;20204;-70
2022/05/22 00:21:05;;;;;;;14.38;13.88;;;;;;;;;;5092245;28;20200;-70
2022/05/22 00:23:33;;;;;;;14.70;14.20;;;;;;;;;;5092163;28;20271;-71
2022/05/22 00:26:01;;;;;;;14.55;14.05;;;;;;;;;;5092160;28;20227;-70
2022/05/22 00:28:27;;;;;;;14.40;13.90;;;;;;;;;;5092430;28;20190;-71
2022/05/22 00:30:54;;;;;;;15.00;14.50;;;;;;;;;;5091648;28;20282;-69
2022/05/22 00:33:21;;;;;;;14.88;14.38;;;;;;;;;;5092395;28;20200;-70
2022/05/22 00:35:48;;;;;;;14.60;14.10;;;;;;;;;;5091994;28;20714;-70
2022/05/22 00:38:14;;;;;;;14.43;13.93;;;;;;;;;;5092051;28;20285;-70
2022/05/22 00:40:41;;;;;;;14.75;14.25;;;;;;;;;;5092022;28;20190;-69
2022/05/22 00:43:24;;;;;;;14.68;14.18;;;;;;;;;;5092288;28;20204;-71
2022/05/22 00:45:50;;;;;;;14.65;14.15;;;;;;;;;;5092328;28;20360;-70
2022/05/22 00:48:17;;;;;;;14.45;13.95;;;;;;;;;;5091907;28;20285;-70
2022/05/22 00:50:44;;;;;;;14.68;14.18;;;;;;;;;;5092251;28;20197;-70
2022/05/22 00:53:11;;;;;;;14.35;13.85;;;;;;;;;;5092181;28;20293;-70
2022/05/22 00:55:38;;;;;;;14.27;13.77;;;;;;;;;;5092711;28;20222;-70
2022/05/22 00:58:07;;;;;;;14.80;14.30;;;;;;;;;;5091905;28;20284;-69
2022/05/22 01:00:36;;;;;;;14.70;14.20;;;;;;;;;;5091817;28;20280;-70
2022/05/22 01:05:48;;;;;;;14.30;13.80;;;;;;;;;;5091949;28;20189;-70
2022/05/22 01:08:14;;;;;;;14.30;13.80;;;;;;;;;;5091783;28;20662;-69
2022/05/22 01:10:43;;;;;;;14.60;14.10;;;;;;;;;;5092041;28;20221;-69
2022/05/22 01:13:10;;;;;;;14.77;14.27;;;;;;;;;;5091856;28;20265;-69
2022/05/22 01:15:38;;;;;;;14.30;13.80;;;;;;;;;;5091867;28;20232;-70
2022/05/22 01:18:05;;;;;;;14.55;14.05;;;;;;;;;;5091698;28;20237;-70
2022/05/22 01:20:32;;;;;;;14.80;14.30;;;;;;;;;;5091859;28;20284;-70
2022/05/22 01:23:00;;;;;;;14.65;14.15;;;;;;;;;;5091899;28;20190;-70
2022/05/22 01:25:27;;;;;;;15.23;14.63;;;;;;;;;;5091561;28;20697;-70
2022/05/22 01:27:54;;;;;;;15.30;14.70;;;;;;;;;;5091845;28;20198;-69
2022/05/22 01:30:21;;;;;;;15.65;15.05;;;;;;;;;;5091806;28;20206;-69
2022/05/22 01:32:49;;;;;;;15.20;14.60;;;;;;;;;;5091736;28;20625;-70
2022/05/22 01:35:18;;;;;;;15.38;14.77;;;;;;;;;;5091798;28;20194;-69
2022/05/22 01:37:44;;;;;;;15.80;15.20;;;;;;;;;;5091496;28;20621;-69
2022/05/22 01:40:13;;;;;;;15.40;14.80;;;;;;;;;;5091453;28;20193;-69
2022/05/22 01:42:41;;;;;;;15.45;14.85;;;;;;;;;;5092102;28;20190;-69
2022/05/22 01:45:08;;;;;;;15.77;15.18;;;;;;;;;;5094988;28;20194;-69
2022/05/22 01:47:35;;;;;;;15.75;15.15;;;;;;;;;;5095058;28;20664;-69
2022/05/22 01:50:02;;;;;;;16.80;16.10;;;;;;;;;;5095217;28;20225;-69
2022/05/22 01:52:29;;;;;;;17.08;16.38;;;;;;;;;;5095185;28;20193;-70
2022/05/22 01:54:56;;;;;;;16.60;15.90;;;;;;;;;;5095058;28;20198;-70
2022/05/22 01:57:25;;;;;;;16.92;16.23;;;;;;;;;;5094684;28;20313;-69
2022/05/22 01:59:51;;;;;;;16.90;16.20;;;;;;;;;;5094765;28;20239;-69
2022/05/22 02:02:18;;;;;;;16.90;16.20;;;;;;;;;;5094995;28;20194;-69
2022/05/22 02:04:45;;;;;;;16.70;16.00;;;;;;;;;;5094918;28;20281;-69
2022/05/22 02:09:55;;;;;;;16.60;15.90;;;;;;;;;;5095034;28;20185;-69
2022/05/22 02:12:22;;;;;;;17.10;16.40;;;;;;;;;;5094408;28;20329;-69
2022/05/22 02:14:50;;;;;;;16.83;16.13;;;;;;;;;;5094723;28;20200;-69
2022/05/22 02:17:17;;;;;;;17.23;16.45;;;;;;;;;;5094398;28;20754;-69
2022/05/22 02:19:43;;;;;;;16.90;16.20;;;;;;;;;;5094657;28;20198;-69
2022/05/22 02:22:10;;;;;;;16.55;15.85;;;;;;;;;;5094322;28;20225;-69
2022/05/22 02:24:37;;;;;;;16.48;15.77;;;;;;;;;;5094510;28;20629;-70
2022/05/22 02:27:06;;;;;;;17.00;16.30;;;;;;;;;;5094514;28;20194;-69
2022/05/22 02:29:32;;;;;;;16.52;15.82;;;;;;;;;;5094489;28;20194;-68
2022/05/22 02:32:01;;;;;;;16.50;15.80;;;;;;;;;;5094430;28;20229;-69
2022/05/22 02:34:27;;;;;;;16.90;16.20;;;;;;;;;;5094109;28;20224;-69
2022/05/22 02:36:54;;;;;;;16.90;16.20;;;;;;;;;;5094238;28;20278;-69
2022/05/22 02:39:21;;;;;;;17.10;16.40;;;;;;;;;;5094041;28;20285;-69
2022/05/22 02:41:47;;;;;;;16.77;16.08;;;;;;;;;;5094746;28;20663;-70
2022/05/22 02:44:14;;;;;;;16.92;16.23;;;;;;;;;;5093955;28;20255;-73
2022/05/22 02:46:42;;;;;;;17.30;16.60;;;;;;;;;;5093864;28;20237;-69
2022/05/22 02:49:10;;;;;;;16.42;15.73;;;;;;;;;;5094059;28;20276;-69
2022/05/22 02:51:36;;;;;;;17.00;16.30;;;;;;;;;;5093755;28;20196;-71
2022/05/22 02:54:03;;;;;;;17.17;16.48;;;;;;;;;;5093439;28;20281;-69
2022/05/22 02:56:30;;;;;;;17.38;16.67;;;;;;;;;;5093870;28;20226;-69
2022/05/22 02:58:58;;;;;;;17.52;16.73;;;;;;;;;;5093924;28;20276;-69
2022/05/22 03:01:24;;;;;;;17.42;16.63;;;;;;;;;;5093578;28;20675;-69
2022/05/22 03:03:51;;;;;;;17.30;16.50;;;;;;;;;;5093512;28;20656;-68
2022/05/22 03:09:04;;;;;;;17.15;16.45;;;;;;;;;;5093586;28;20184;-69
2022/05/22 03:11:30;;;;;;;16.98;16.27;;;;;;;;;;5093140;28;20706;-69
2022/05/22 03:13:57;;;;;;;17.20;16.50;;;;;;;;;;5093636;28;20285;-69
2022/05/22 03:16:24;;;;;;;16.98;16.27;;;;;;;;;;5093617;28;20308;-68
2022/05/22 03:18:50;;;;;;;17.20;16.50;;;;;;;;;;5093192;28;20244;-69
2022/05/22 03:21:18;;;;;;;16.92;16.23;;;;;;;;;;5093469;28;20288;-69
2022/05/22 03:23:45;;;;;;;16.80;16.10;;;;;;;;;;5094245;28;20279;-70
2022/05/22 03:26:12;;;;;;;16.70;16.00;;;;;;;;;;5093403;28;20258;-72
2022/05/22 03:28:39;;;;;;;17.00;16.30;;;;;;;;;;5093015;28;20759;-69
2022/05/22 03:31:06;;;;;;;16.80;16.10;;;;;;;;;;5094083;28;20281;-70
2022/05/22 03:33:33;;;;;;;16.20;15.60;;;;;;;;;;5092957;28;20237;-69
2022/05/22 03:35:59;;;;;;;16.27;15.68;;;;;;;;;;5093622;28;20200;-69
2022/05/22 03:38:27;;;;;;;16.77;16.08;;;;;;;;;;5093198;28;20229;-69
2022/05/22 03:40:54;;;;;;;16.60;15.90;;;;;;;;;;5092819;28;20663;-69
2022/05/22 03:43:21;;;;;;;16.95;16.25;;;;;;;;;;5093116;28;20596;-68
2022/05/22 03:45:47;;;;;;;16.70;16.00;;;;;;;;;;5093053;28;20198;-69
2022/05/22 03:48:14;;;;;;;16.55;15.95;;;;;;;;;;5092639;28;20228;-69
2022/05/22 03:50:41;;;;;;;16.60;15.90;;;;;;;;;;5092649;28;20281;-70
2022/05/22 03:53:08;;;;;;;16.98;16.27;;;;;;;;;;5092872;28;20276;-69
2022/05/22 03:55:36;;;;;;;17.25;16.55;;;;;;;;;;5092876;28;20196;-71
2022/05/22 03:58:02;;;;;;;16.88;16.17;;;;;;;;;;5092482;28;20316;-69
2022/05/22 04:00:29;;;;;;;16.52;15.82;;;;;;;;;;5092791;28;20231;-69
2022/05/22 04:02:56;;;;;;;16.58;15.88;;;;;;;;;;5092491;28;20280;-73
2022/05/22 04:05:23;;;;;;;16.25;15.65;;;;;;;;;;5092116;28;20280;-69
2022/05/22 04:07:49;;;;;;;16.60;16.00;;;;;;;;;;5092698;28;20203;-69
2022/05/22 04:10:17;;;;;;;16.13;15.52;;;;;;;;;;5092652;28;20205;-69
2022/05/22 04:12:45;;;;;;;16.20;15.60;;;;;;;;;;5092241;28;20308;-69
2022/05/22 04:15:13;;;;;;;16.70;16.00;;;;;;;;;;5092298;28;20748;-68
2022/05/22 04:17:40;;;;;;;16.27;15.68;;;;;;;;;;5092471;28;20626;-69
2022/05/22 04:20:07;;;;;;;16.60;15.90;;;;;;;;;;5092591;28;20272;-68
2022/05/22 04:25:10;;;;;;;16.55;15.85;;;;;;;;;;5092517;28;20194;-69
2022/05/22 04:25:21;;;;;;;16.83;16.15;;;;;;;;;;5092238;28;20285;-69
2022/05/22 04:27:49;;;;;;;16.75;16.05;;;;;;;;;;5092157;28;20663;-68
2022/05/22 04:30:18;;;;;;;17.38;16.67;;;;;;;;;;5092448;28;20276;-69
2022/05/22 04:32:45;;;;;;;17.10;16.40;;;;;;;;;;5092669;28;20198;-68
2022/05/22 04:35:12;;;;;;;17.02;16.33;;;;;;;;;;5092678;28;20189;-72
2022/05/22 04:37:39;;;;;;;17.13;16.42;;;;;;;;;;5091979;28;20312;-69
2022/05/22 04:40:07;;;;;;;17.58;16.88;;;;;;;;;;5092350;28;20323;-69
2022/05/22 04:42:33;;;;;;;17.35;16.65;;;;;;;;;;5091996;28;20196;-69
2022/05/22 04:45:02;;;;;;;17.38;16.67;;;;;;;;;;5092254;28;20622;-69
2022/05/22 04:47:29;;;;;;;17.35;16.65;;;;;;;;;;5091949;28;20695;-69
2022/05/22 04:49:55;;;;;;;17.67;16.98;;;;;;;;;;5091975;28;20297;-68
2022/05/22 04:52:22;;;;;;;17.73;16.98;;;;;;;;;;5092210;28;20297;-72
2022/05/22 04:54:49;;;;;;;17.48;16.77;;;;;;;;;;5092248;28;20395;-68
2022/05/22 04:57:15;;;;;;;17.20;16.50;;;;;;;;;;5092109;28;20229;-68
2022/05/22 04:59:42;;;;;;;17.02;16.33;;;;;;;;;;5092166;28;20198;-69
2022/05/22 05:02:10;;;;;;;16.75;16.05;;;;;;;;;;5092138;28;20403;-69
2022/05/22 05:04:37;;;;;;;17.08;16.38;;;;;;;;;;5092024;28;20202;-69
2022/05/22 05:07:07;;;;;;;17.23;16.52;;;;;;;;;;5091770;28;20284;-70
2022/05/22 05:09:35;;;;;;;16.92;16.23;;;;;;;;;;5091752;28;20284;-68
2022/05/22 05:12:02;;;;;;;16.98;16.27;;;;;;;;;;5091697;28;20265;-69
2022/05/22 05:14:28;;;;;;;16.80;16.10;;;;;;;;;;5091984;28;20229;-69
2022/05/22 05:16:55;;;;;;;16.58;15.88;;;;;;;;;;5092402;28;20321;-69
2022/05/22 05:19:23;;;;;;;16.38;15.77;;;;;;;;;;5095568;28;20189;-68
2022/05/22 05:21:50;;;;;;;16.58;15.98;;;;;;;;;;5095791;28;20233;-69
2022/05/22 05:24:17;;;;;;;16.92;16.23;;;;;;;;;;5095805;28;20243;-69
2022/05/22 05:26:43;;;;;;;16.27;15.68;;;;;;;;;;5095649;28;20284;-69
2022/05/22 05:29:10;;;;;;;16.25;15.65;;;;;;;;;;5095376;28;20282;-69
2022/05/22 05:31:37;;;;;;;16.75;16.05;;;;;;;;;;5095578;28;20694;-68
2022/05/22 05:34:03;;;;;;;17.00;16.30;;;;;;;;;;5095580;28;20225;-68
2022/05/22 05:36:32;;;;;;;16.50;15.90;;;;;;;;;;5095139;28;20674;-69
2022/05/22 05:38:59;;;;;;;16.75;16.05;;;;;;;;;;5095114;28;20197;-69
2022/05/22 05:41:26;;;;;;;16.67;16.05;;;;;;;;;;5095381;28;20237;-68
2022/05/22 05:43:52;;;;;;;16.25;15.65;;;;;;;;;;5095389;28;20293;-69
2022/05/22 05:46:19;;;;;;;16.30;15.70;;;;;;;;;;5095350;28;20193;-69
2022/05/22 05:48:46;;;;;;;16.75;16.05;;;;;;;;;;5095016;28;20232;-72
2022/05/22 05:51:13;;;;;;;17.17;16.48;;;;;;;;;;5095233;28;20247;-69
2022/05/22 05:53:41;;;;;;;16.17;15.57;;;;;;;;;;5095139;28;20197;-69
2022/05/22 05:56:09;;;;;;;16.75;16.05;;;;;;;;;;5094838;28;20201;-69
2022/05/22 05:58:35;;;;;;;16.63;15.93;;;;;;;;;;5095039;28;20230;-69
2022/05/22 06:01:02;;;;;;;16.67;15.98;;;;;;;;;;5095096;28;20251;-69
2022/05/22 06:03:29;;;;;;;16.67;15.98;;;;;;;;;;5094716;28;20205;-69
2022/05/22 06:05:55;;;;;;;16.27;15.57;;;;;;;;;;5094668;28;20198;-69
2022/05/22 06:08:22;;;;;;;16.65;15.95;;;;;;;;;;5094560;28;20575;-69
2022/05/22 06:10:52;;;;;;;16.63;15.93;;;;;;;;;;5095175;28;20331;-69
2022/05/22 06:13:19;;;;;;;16.40;15.80;;;;;;;;;;5094449;28;20290;-72
2022/05/22 06:15:46;;;;;;;16.77;16.08;;;;;;;;;;5094534;28;20197;-69
2022/05/22 06:18:13;;;;;;;16.17;15.57;;;;;;;;;;5094421;28;20229;-68
2022/05/22 06:20:40;;;;;;;16.23;15.63;;;;;;;;;;5094425;28;20681;-69
2022/05/22 06:23:06;;;;;;;17.00;16.30;;;;;;;;;;5094698;28;20194;-69
2022/05/22 06:25:34;;;;;;;16.65;15.98;;;;;;;;;;5094832;28;20286;-69
2022/05/22 06:28:02;;;;;;;16.98;16.27;;;;;;;;;;5094376;28;20198;-69
2022/05/22 06:30:29;;;;;;;16.08;15.48;;;;;;;;;;5093770;28;20194;-69
2022/05/22 06:32:55;;;;;;;15.85;15.25;;;;;;;;;;5094481;28;20255;-72
2022/05/22 06:35:22;;;;;;;16.00;15.40;;;;;;;;;;5094972;28;20236;-68
2022/05/22 06:37:49;;;;;;;16.10;15.48;;;;;;;;;;5094570;28;20259;-70
2022/05/22 06:40:15;;;;;;;16.35;15.65;;;;;;;;;;5094277;28;20285;-75
2022/05/22 06:42:43;;;;;;;15.80;15.20;;;;;;;;;;5093947;28;20228;-69
2022/05/22 06:45:14;;;;;;;15.95;15.35;;;;;;;;;;5093906;28;20194;-74
2022/05/22 06:47:41;;;;;;;15.80;15.20;;;;;;;;;;5093892;28;20205;-69
2022/05/22 06:50:10;;;;;;;15.68;15.07;;;;;;;;;;5094135;28;20190;-74
2022/05/22 06:52:36;;;;;;;15.57;14.98;;;;;;;;;;5093819;28;20243;-73
2022/05/22 06:55:04;;;;;;;16.20;15.50;;;;;;;;;;5093990;28;20190;-68
2022/05/22 06:57:31;;;;;;;15.77;15.18;;;;;;;;;;5093799;28;20298;-69
2022/05/22 06:59:58;;;;;;;15.55;14.95;;;;;;;;;;5093701;28;20228;-68
2022/05/22 07:02:28;;;;;;;15.35;14.75;;;;;;;;;;5093791;28;20197;-68
2022/05/22 07:04:56;;;;;;;15.88;15.23;;;;;;;;;;5093549;28;20302;-69
2022/05/22 07:07:23;;;;;;;15.90;15.30;;;;;;;;;;5093435;28;20198;-73
2022/05/22 07:09:50;;;;;;;15.90;15.20;;;;;;;;;;5094006;28;20202;-69
2022/05/22 07:12:18;;;;;;;15.75;15.15;;;;;;;;;;5093357;28;20312;-73
2022/05/22 07:14:44;;;;;;;15.70;15.10;;;;;;;;;;5093374;28;20586;-69
2022/05/22 07:17:13;;;;;;;15.95;15.25;;;;;;;;;;5093220;28;20229;-70
2022/05/22 07:19:43;;;;;;;16.00;15.30;;;;;;;;;;5093242;28;20671;-73
2022/05/22 07:22:10;;;;;;;15.27;14.68;;;;;;;;;;5093596;28;20227;-73
2022/05/22 07:24:36;;;;;;;15.27;14.68;;;;;;;;;;5093090;28;20646;-69
2022/05/22 07:27:03;;;;;;;15.55;14.95;;;;;;;;;;5093138;28;20198;-72
2022/05/22 07:29:30;;;;;;;15.98;15.27;;;;;;;;;;5093388;28;20728;-69
2022/05/22 07:31:58;;;;;;;15.93;15.25;;;;;;;;;;5093289;28;20729;-69
2022/05/22 07:34:25;;;;;;;15.95;15.35;;;;;;;;;;5092971;28;20205;-72
2022/05/22 07:36:56;;;;;;;15.65;14.95;;;;;;;;;;5094048;28;20197;-69
2022/05/22 07:39:22;;;;;;;15.40;14.80;;;;;;;;;;5092839;28;20218;-70
2022/05/22 07:41:49;;;;;;;15.57;14.98;;;;;;;;;;5092210;28;20198;-69
2022/05/22 07:44:16;;;;;;;15.63;15.02;;;;;;;;;;5093126;28;20202;-72
2022/05/22 07:46:42;;;;;;;15.85;15.25;;;;;;;;;;5092720;28;20198;-69
2022/05/22 07:50:16;;;;;;;15.73;15.13;;;;;;;;;;5092688;28;20707;-73
2022/05/22 07:51:57;;;;;;;15.70;15.10;;;;;;;;;;5093215;28;20284;-70
2022/05/22 07:54:24;;;;;;;15.38;14.77;;;;;;;;;;5092911;28;20548;-69
2022/05/22 07:56:51;;;;;;;15.60;15.00;;;;;;;;;;5092937;28;20657;-71
2022/05/22 07:59:18;;;;;;;15.50;14.90;;;;;;;;;;5092755;28;20272;-70
2022/05/22 08:01:44;;;;;;;15.40;14.80;;;;;;;;;;5092486;28;20232;-70
2022/05/22 08:04:11;;;;;;;14.77;14.27;;;;;;;;;;5092467;28;20245;-71
2022/05/22 08:06:38;;;;;;;15.10;14.50;;;;;;;;;;5092430;28;20194;-70
2022/05/22 08:09:06;;;;;;;15.25;14.65;;;;;;;;;;5092758;28;20197;-72
2022/05/22 08:11:32;;;;;;;15.38;14.77;;;;;;;;;;5092183;28;20265;-69
2022/05/22 08:13:59;;;;;;;15.63;15.02;;;;;;;;;;5092696;28;20198;-70
2022/05/22 08:16:26;;;;;;;15.75;15.15;;;;;;;;;;5092600;28;20216;-70
2022/05/22 08:18:52;;;;;;;15.73;15.13;;;;;;;;;;5092237;28;20320;-69
2022/05/22 08:21:19;;;;;;;15.70;15.10;;;;;;;;;;5092286;28;20726;-72
2022/05/22 08:23:46;;;;;;;15.45;14.85;;;;;;;;;;5092522;28;20225;-72
2022/05/22 08:26:14;;;;;;;15.55;14.95;;;;;;;;;;5092543;28;20194;-69
2022/05/22 08:28:41;;;;;;;15.70;15.10;;;;;;;;;;5092172;28;20246;-68
2022/05/22 08:31:07;;;;;;;16.10;15.50;;;;;;;;;;5092436;28;20189;-74
2022/05/22 08:33:35;;;;;;;15.57;14.98;;;;;;;;;;5092436;28;20271;-69
2022/05/22 08:36:01;;;;;;;15.70;15.10;;;;;;;;;;5092353;28;20197;-69
2022/05/22 08:38:29;;;;;;;15.40;14.80;;;;;;;;;;5092304;28;20317;-69
2022/05/22 08:40:58;;;;;;;15.32;14.73;;;;;;;;;;5091995;28;20237;-69
2022/05/22 08:43:30;;;;;;;15.43;14.82;;;;;;;;;;5092055;28;20663;-70
2022/05/22 08:45:59;;;;;;;15.73;15.13;;;;;;;;;;5092331;28;20208;-68
2022/05/22 08:48:30;;;;;;;15.70;15.10;;;;;;;;;;5091984;28;20656;-69
2022/05/22 08:50:58;;;;;;;15.38;14.77;;;;;;;;;;5092350;28;20236;-70
2022/05/22 08:53:28;;;;;;;15.38;14.77;;;;;;;;;;5095308;28;20663;-69
2022/05/22 08:58:59;;;;;;;15.25;14.65;;;;;;;;;;5096331;28;20227;-69
2022/05/22 09:01:44;;;;;;;15.45;14.85;;;;;;;;;;5096519;28;20587;-68
2022/05/22 09:04:19;;;;;;;15.38;14.77;;;;;;;;;;5096246;28;20243;-72
2022/05/22 09:06:55;;;;;;;15.45;14.85;;;;;;;;;;5095879;28;20185;-68
2022/05/22 09:09:22;;;;;;;15.13;14.63;;;;;;;;;;5096079;28;20284;-68
2022/05/22 09:12:04;;;;;;;15.02;14.48;;;;;;;;;;5095731;28;20760;-75
2022/05/22 09:14:36;;;;;;;15.20;14.60;;;;;;;;;;5095988;28;20277;-68
2022/05/22 09:17:09;;;;;;;16.15;15.45;;;;;;;;;;5095677;28;20687;-68
2022/05/22 09:19:38;;;;;;;15.07;14.48;;;;;;;;;;5095827;28;20633;-69
2022/05/22 09:22:10;;;;;;;15.43;14.82;;;;;;;;;;5095833;28;20277;-68
2022/05/22 09:24:42;;;;;;;15.48;14.88;;;;;;;;;;5095546;28;20197;-68
2022/05/22 09:27:10;;;;;;;15.07;14.48;;;;;;;;;;5095727;28;20233;-70
2022/05/22 09:29:49;;;;;;;15.23;14.63;;;;;;;;;;5095618;28;20197;-74
2022/05/22 09:32:20;;;;;;;15.18;14.57;;;;;;;;;;5095426;28;20276;-68
2022/05/22 09:34:53;;;;;;;15.10;14.50;;;;;;;;;;5095619;28;20251;-67
2022/05/22 09:37:24;;;;;;;14.75;14.25;;;;;;;;;;5095637;28;20182;-70
2022/05/22 09:39:56;;;;;;;14.95;14.35;;;;;;;;;;5095159;28;20257;-69
2022/05/22 09:42:31;;;;;;;14.60;14.10;;;;;;;;;;5095398;28;20276;-68
2022/05/22 09:45:07;;;;;;;14.63;14.13;;;;;;;;;;5095112;28;20185;-68
2022/05/22 09:47:45;;;;;;;14.57;14.07;;;;;;;;;;5095406;28;20625;-68
2022/05/22 09:50:20;;;;;;;14.85;14.32;;;;;;;;;;5095049;28;20190;-69
2022/05/22 09:52:51;;;;;;;14.80;14.30;;;;;;;;;;5095023;28;20276;-69
2022/05/22 09:55:28;;;;;;;14.43;13.93;;;;;;;;;;5095230;28;20276;-68
2022/05/22 09:58:02;;;;;;;15.10;14.50;;;;;;;;;;5095084;28;20182;-69
2022/05/22 10:00:33;;;;;;;14.48;13.98;;;;;;;;;;5094887;28;20711;-69
2022/05/22 10:03:04;;;;;;;15.00;14.40;;;;;;;;;;5095544;28;20207;-74
2022/05/22 10:05:34;;;;;;;14.88;14.27;;;;;;;;;;5094595;28;20182;-69
2022/05/22 10:08:06;;;;;;;15.18;14.57;;;;;;;;;;5095587;28;20225;-68
2022/05/22 10:10:39;;;;;;;14.73;14.23;;;;;;;;;;5094944;28;20240;-69
2022/05/22 10:13:09;;;;;;;14.93;14.43;;;;;;;;;;5094472;28;20225;-77
2022/05/22 10:15:43;;;;;;;14.70;14.20;;;;;;;;;;5094499;28;20731;-73
2022/05/22 10:18:22;;;;;;;14.90;14.40;;;;;;;;;;5094512;28;20185;-75
2022/05/22 10:20:53;;;;;;;14.75;14.25;;;;;;;;;;5094453;28;20189;-69
2022/05/22 10:23:27;;;;;;;14.80;14.30;;;;;;;;;;5094759;28;20310;-75
2022/05/22 10:25:58;;;;;;;15.15;14.55;;;;;;;;;;5094365;28;20667;-74
2022/05/22 10:28:28;;;;;;;15.18;14.57;;;;;;;;;;5094340;28;20194;-70
2022/05/22 10:30:58;;;;;;;14.95;14.38;;;;;;;;;;5094591;28;20213;-69
2022/05/22 10:33:28;;;;;;;14.55;14.05;;;;;;;;;;5094262;28;20186;-70
2022/05/22 10:35:56;;;;;;;14.80;14.30;;;;;;;;;;5094119;28;20655;-69
2022/05/22 10:38:24;;;;;;;14.82;14.32;;;;;;;;;;5094498;28;20302;-71
2022/05/22 10:43:37;;;;;;;14.98;14.38;;;;;;;;;;5094654;28;20324;-69
2022/05/22 10:46:05;;;;;;;14.90;14.40;;;;;;;;;;5094061;28;20230;-71
2022/05/22 10:48:34;;;;;;;15.18;14.57;;;;;;;;;;5093894;28;20244;-70
2022/05/22 10:51:03;;;;;;;15.23;14.63;;;;;;;;;;5093896;28;20738;-71
2022/05/22 10:53:33;;;;;;;14.77;14.27;;;;;;;;;;5094075;28;20272;-70
2022/05/22 10:56:04;;;;;;;15.18;14.57;;;;;;;;;;5094118;28;20198;-70
2022/05/22 10:58:32;;;;;;;15.13;14.52;;;;;;;;;;5093936;28;20257;-69
2022/05/22 11:01:00;;;;;;;14.88;14.35;;;;;;;;;;5093689;28;20255;-79
2022/05/22 11:03:29;;;;;;;15.30;14.70;;;;;;;;;;5093613;28;20237;-76
2022/05/22 11:05:57;;;;;;;15.25;14.65;;;;;;;;;;5093876;28;20194;-69
2022/05/22 11:08:28;;;;;;;15.60;15.00;;;;;;;;;;5093427;28;20227;-69
2022/05/22 11:10:55;;;;;;;14.60;14.10;;;;;;;;;;5094007;28;20197;-73
2022/05/22 11:13:23;;;;;;;14.77;14.27;;;;;;;;;;5093276;28;20291;-72
2022/05/22 11:15:50;;;;;;;14.68;14.18;;;;;;;;;;5093124;28;20622;-72
2022/05/22 11:18:21;;;;;;;15.20;14.60;;;;;;;;;;5093521;28;20222;-71
2022/05/22 11:20:53;;;;;;;14.68;14.18;;;;;;;;;;5093668;28;20186;-69
2022/05/22 11:23:29;;;;;;;15.18;14.57;;;;;;;;;;5093274;28;20229;-77
2022/05/22 11:26:01;;;;;;;14.98;14.38;;;;;;;;;;5093198;28;20281;-76
2022/05/22 11:28:41;;;;;;;15.35;14.75;;;;;;;;;;5093407;28;20190;-74
2022/05/22 11:31:18;;;;;;;16.05;15.40;;;;;;;;;;5093116;28;20221;-69
2022/05/22 11:34:00;;;;;;;15.23;14.63;;;;;;;;;;5093370;28;20186;-69
2022/05/22 11:36:37;;;;;;;15.27;14.68;;;;;;;;;;5093068;28;20185;-70
2022/05/22 11:39:13;;;;;;;15.32;14.73;;;;;;;;;;5092829;28;20213;-70
2022/05/22 11:41:44;;;;;;;15.25;14.65;;;;;;;;;;5093185;28;20186;-73
2022/05/22 11:44:30;;;;;;;15.00;14.40;;;;;;;;;;5093185;28;20611;-71
2022/05/22 11:47:02;;;;;;;15.02;14.50;;;;;;;;;;5093080;28;20268;-73
2022/05/22 11:49:33;;;;;;;15.30;14.70;;;;;;;;;;5093156;28;20186;-71
2022/05/22 11:52:08;;;;;;;15.30;14.70;;;;;;;;;;5092729;28;20643;-69
2022/05/22 11:54:44;;;;;;;15.90;15.30;;;;;;;;;;5093091;28;20220;-71
2022/05/22 11:57:22;;;;;;;15.30;14.70;;;;;;;;;;5092950;28;20196;-74
2022/05/22 11:59:55;;;;;;;15.38;14.77;;;;;;;;;;5092908;28;20271;-76
2022/05/22 12:02:26;;;;;;;15.50;14.90;;;;;;;;;;5092546;28;20237;-68
2022/05/22 12:05:01;;;;;;;15.30;14.70;;;;;;;;;;5092582;28;20281;-70
2022/05/22 12:07:37;;;;;;;16.15;15.30;;;;;;;;;;5092724;28;20644;-73
2022/05/22 12:10:09;;;;;;;15.50;14.90;;;;;;;;;;5092795;28;20712;-71
2022/05/22 12:12:38;;;;;;;15.35;14.75;;;;;;;;;;5092489;28;20257;-73
2022/05/22 12:15:10;;;;;;;15.30;14.70;;;;;;;;;;5092890;28;20590;-72
2022/05/22 12:17:40;;;;;;;15.40;14.80;;;;;;;;;;5092384;28;20652;-71
2022/05/22 12:20:11;;;;;;;16.00;15.40;;;;;;;;;;5092472;28;20316;-69
2022/05/22 12:25:27;;;;;;;15.60;15.00;;;;;;;;;;5092353;28;20240;-71
2022/05/22 12:27:54;;;;;;;15.82;15.23;;;;;;;;;;5091938;28;20193;-71
2022/05/22 12:30:24;;;;;;;15.80;15.20;;;;;;;;;;5092443;28;20243;-69
2022/05/22 12:32:52;;;;;;;16.02;15.43;;;;;;;;;;5092477;28;20247;-77
2022/05/22 12:35:19;;;;;;;15.63;15.02;;;;;;;;;;5092129;28;20247;-73
2022/05/22 12:37:50;;;;;;;15.55;14.95;;;;;;;;;;5092336;28;20259;-70
2022/05/22 12:40:27;;;;;;;15.70;15.10;;;;;;;;;;5092343;28;20213;-70
2022/05/22 12:42:55;;;;;;;15.88;15.27;;;;;;;;;;5092336;28;20235;-75
2022/05/22 12:45:22;;;;;;;16.00;15.40;;;;;;;;;;5092287;28;20234;-70
2022/05/22 12:47:50;;;;;;;15.95;15.35;;;;;;;;;;5092028;28;20205;-71
2022/05/22 12:50:26;;;;;;;15.75;15.15;;;;;;;;;;5092243;28;20272;-69
2022/05/22 12:52:55;;;;;;;15.90;15.30;;;;;;;;;;5092359;28;20334;-70
2022/05/22 12:55:22;;;;;;;16.20;15.60;;;;;;;;;;5091921;28;20619;-71
2022/05/22 12:57:53;;;;;;;15.90;15.30;;;;;;;;;;5091911;28;20236;-71
2022/05/22 13:00:32;;;;;;;15.95;15.35;;;;;;;;;;5092122;28;20235;-73
2022/05/22 13:03:08;;;;;;;16.25;15.65;;;;;;;;;;5091889;28;20239;-70
2022/05/22 13:05:35;;;;;;;16.02;15.43;;;;;;;;;;5091893;28;20189;-69
2022/05/22 13:08:14;;;;;;;16.30;15.70;;;;;;;;;;5092126;28;20203;-73
2022/05/22 13:10:45;;;;;;;16.13;15.52;;;;;;;;;;5091823;28;20597;-75
2022/05/22 13:13:12;;;;;;;16.00;15.40;;;;;;;;;;5091890;28;20247;-70
2022/05/22 13:15:51;;;;;;;15.98;15.38;;;;;;;;;;5091720;28;20204;-70
2022/05/22 13:18:18;;;;;;;15.90;15.30;;;;;;;;;;5091769;28;20194;-69
2022/05/22 13:20:48;;;;;;;16.17;15.57;;;;;;;;;;5091911;28;20253;-70
2022/05/22 13:23:28;;;;;;;15.95;15.35;;;;;;;;;;5092003;28;20189;-69
2022/05/22 13:25:56;;;;;;;16.13;15.52;;;;;;;;;;5092007;28;20186;-69
2022/05/22 13:28:26;;;;;;;15.98;15.38;;;;;;;;;;5091939;28;20276;-71
2022/05/22 13:30:53;;;;;;;16.30;15.70;;;;;;;;;;5091606;28;20233;-69
2022/05/22 13:33:21;;;;;;;15.77;15.18;;;;;;;;;;5091572;28;20247;-73
2022/05/22 13:35:52;;;;;;;16.20;15.60;;;;;;;;;;5091859;28;20234;-74
2022/05/22 13:38:18;;;;;;;16.30;15.70;;;;;;;;;;5092942;28;20192;-72
2022/05/22 13:40:51;;;;;;;16.15;15.55;;;;;;;;;;5095134;28;20283;-71
2022/05/22 13:43:29;;;;;;;16.05;15.45;;;;;;;;;;5095569;28;20535;-71
2022/05/22 13:46:11;;;;;;;16.00;15.40;;;;;;;;;;5095456;28;20190;-70
2022/05/22 13:48:53;;;;;;;16.13;15.52;;;;;;;;;;5095145;28;20182;-70
2022/05/22 13:54:28;;;;;;;15.60;15.00;;;;;;;;;;5095067;28;20316;-73
2022/05/22 13:56:58;;;;;;;15.77;15.18;;;;;;;;;;5095260;28;20243;-69
2022/05/22 13:59:28;;;;;;;15.88;15.27;;;;;;;;;;5094843;28;20217;-69
2022/05/22 14:01:55;;;;;;;15.90;15.30;;;;;;;;;;5094824;28;20580;-69
2022/05/22 14:04:22;;;;;;;15.65;15.05;;;;;;;;;;5094803;28;20197;-75
2022/05/22 14:06:50;;;;;;;15.48;14.88;;;;;;;;;;5094710;28;20574;-71
2022/05/22 14:09:24;;;;;;;15.50;14.90;;;;;;;;;;5094636;28;20247;-70
2022/05/22 14:11:51;;;;;;;15.48;14.88;;;;;;;;;;5094594;28;20229;-74
2022/05/22 14:14:21;;;;;;;15.73;15.13;;;;;;;;;;5094561;28;20194;-71
2022/05/22 14:16:51;;;;;;;15.77;15.18;;;;;;;;;;5094523;28;20285;-69
2022/05/22 14:19:25;;;;;;;15.43;14.82;;;;;;;;;;5094462;28;20221;-69
2022/05/22 14:21:51;;;;;;;15.77;15.18;;;;;;;;;;5094484;28;20273;-69
2022/05/22 14:27:06;;;;;;;15.48;14.88;;;;;;;;;;5094814;28;20193;-71
2022/05/22 14:29:34;;;;;;;15.70;15.10;;;;;;;;;;5094301;28;20197;-72
2022/05/22 14:32:00;;;;;;;15.77;15.18;;;;;;;;;;5094274;28;20200;-76
2022/05/22 14:34:28;;;;;;;15.80;15.20;;;;;;;;;;5094449;28;20752;-72
2022/05/22 14:36:55;;;;;;;15.63;15.02;;;;;;;;;;5094412;28;20202;-70
2022/05/22 14:39:23;;;;;;;15.65;15.05;;;;;;;;;;5094336;28;20281;-74
2022/05/22 14:41:51;;;;;;;15.75;15.15;;;;;;;;;;5094371;28;20201;-70
2022/05/22 14:44:19;;;;;;;15.95;15.35;;;;;;;;;;5094016;28;20194;-73
2022/05/22 14:46:49;;;;;;;15.75;15.15;;;;;;;;;;5094281;28;20579;-75
2022/05/22 14:49:17;;;;;;;15.60;15.00;;;;;;;;;;5093831;28;20559;-72
2022/05/22 14:51:47;;;;;;;15.60;15.00;;;;;;;;;;5093986;28;20194;-70